sensor_id;sensor_type;location;lat;lon;timestamp;temperature;humidity
61916;DHT22;47868;51.326;6.550;2023-08-30T00:10:48;16.60;99.90
61916;DHT22;47868;51.326;6.550;2023-08-30T00:15:40;16.50;99.90
61916;DHT22;47868;51.326;6.550;2023-08-30T00:18:06;16.80;99.90
61916;DHT22;47868;51.326;6.550;2023-08-30T00:22:59;16.50;99.90
61916;DHT22;47868;51.326;6.550;2023-08-30T00:27:50;16.20;99.90
61916;DHT22;47868;51.326;6.550;2023-08-30T00:32:43;16.40;99.90
61916;DHT22;47868;51.326;6.550;2023-08-30T00:35:10;16.10;99.90
61916;DHT22;47868;51.326;6.550;2023-08-30T00:37:35;16.30;99.90
61916;DHT22;47868;51.326;6.550;2023-08-30T00:40:01;16.40;99.90
61916;DHT22;47868;51.326;6.550;2023-08-30T00:42:27;16.10;99.90
61916;DHT22;47868;51.326;6.550;2023-08-30T00:47:19;16.00;99.90
61916;DHT22;47868;51.326;6.550;2023-08-30T00:54:38;16.20;99.90
61916;DHT22;47868;51.326;6.550;2023-08-30T00:57:04;16.30;99.90
61916;DHT22;47868;51.326;6.550;2023-08-30T01:02:00;16.40;99.90
61916;DHT22;47868;51.326;6.550;2023-08-30T01:06:55;16.50;99.90
61916;DHT22;47868;51.326;6.550;2023-08-30T01:14:21;16.40;99.90
61916;DHT22;47868;51.326;6.550;2023-08-30T01:22:13;16.50;99.90
61916;DHT22;47868;51.326;6.550;2023-08-30T01:27:27;16.40;99.90
61916;DHT22;47868;51.326;6.550;2023-08-30T01:29:54;16.40;99.90
61916;DHT22;47868;51.326;6.550;2023-08-30T01:34:51;16.20;99.90
61916;DHT22;47868;51.326;6.550;2023-08-30T01:37:17;16.10;99.90
61916;DHT22;47868;51.326;6.550;2023-08-30T02:16:58;15.90;99.90
61916;DHT22;47868;51.326;6.550;2023-08-30T02:19:24;15.90;99.90
61916;DHT22;47868;51.326;6.550;2023-08-30T02:21:50;16.60;99.90
61916;DHT22;47868;51.326;6.550;2023-08-30T02:24:16;16.00;99.90
61916;DHT22;47868;51.326;6.550;2023-08-30T02:26:41;15.90;99.90
61916;DHT22;47868;51.326;6.550;2023-08-30T02:29:07;15.90;99.90
61916;DHT22;47868;51.326;6.550;2023-08-30T02:31:33;15.90;99.90
61916;DHT22;47868;51.326;6.550;2023-08-30T02:33:59;15.90;99.90
61916;DHT22;47868;51.326;6.550;2023-08-30T02:36:24;15.90;99.90
61916;DHT22;47868;51.326;6.550;2023-08-30T02:38:50;15.90;99.90
61916;DHT22;47868;51.326;6.550;2023-08-30T02:41:16;15.90;99.90
61916;DHT22;47868;51.326;6.550;2023-08-30T02:43:41;15.90;99.90
61916;DHT22;47868;51.326;6.550;2023-08-30T02:46:07;16.00;99.90
61916;DHT22;47868;51.326;6.550;2023-08-30T03:47:30;15.70;99.90
61916;DHT22;47868;51.326;6.550;2023-08-30T03:52:22;15.80;99.90
61916;DHT22;47868;51.326;6.550;2023-08-30T03:54:48;15.80;99.90
61916;DHT22;47868;51.326;6.550;2023-08-30T03:57:13;15.80;99.90
61916;DHT22;47868;51.326;6.550;2023-08-30T03:59:39;15.80;99.90
61916;DHT22;47868;51.326;6.550;2023-08-30T04:02:04;15.80;99.90
61916;DHT22;47868;51.326;6.550;2023-08-30T04:04:30;15.80;99.90
61916;DHT22;47868;51.326;6.550;2023-08-30T04:06:55;15.90;99.90
61916;DHT22;47868;51.326;6.550;2023-08-30T04:09:21;15.90;99.90
61916;DHT22;47868;51.326;6.550;2023-08-30T04:11:46;15.90;99.90
61916;DHT22;47868;51.326;6.550;2023-08-30T04:14:12;15.80;99.90
61916;DHT22;47868;51.326;6.550;2023-08-30T04:16:38;16.40;99.90
61916;DHT22;47868;51.326;6.550;2023-08-30T04:19:03;16.50;99.90
61916;DHT22;47868;51.326;6.550;2023-08-30T04:21:29;15.90;99.90
61916;DHT22;47868;51.326;6.550;2023-08-30T04:23:54;15.90;99.90
61916;DHT22;47868;51.326;6.550;2023-08-30T04:26:20;15.90;99.90
61916;DHT22;47868;51.326;6.550;2023-08-30T04:28:45;15.90;99.90
61916;DHT22;47868;51.326;6.550;2023-08-30T04:31:11;15.70;99.90
61916;DHT22;47868;51.326;6.550;2023-08-30T04:33:36;16.30;99.90
61916;DHT22;47868;51.326;6.550;2023-08-30T04:36:02;16.20;99.90
61916;DHT22;47868;51.326;6.550;2023-08-30T04:38:29;15.90;99.90
61916;DHT22;47868;51.326;6.550;2023-08-30T04:40:58;16.40;99.90
61916;DHT22;47868;51.326;6.550;2023-08-30T04:45:54;15.80;99.90
61916;DHT22;47868;51.326;6.550;2023-08-30T04:53:12;15.80;99.90
61916;DHT22;47868;51.326;6.550;2023-08-30T04:55:38;15.90;99.90
61916;DHT22;47868;51.326;6.550;2023-08-30T04:58:03;16.00;99.90
61916;DHT22;47868;51.326;6.550;2023-08-30T05:00:29;16.80;99.90
61916;DHT22;47868;51.326;6.550;2023-08-30T05:02:56;16.00;99.90
61916;DHT22;47868;51.326;6.550;2023-08-30T05:05:22;16.00;99.90
61916;DHT22;47868;51.326;6.550;2023-08-30T05:07:47;15.80;99.90
61916;DHT22;47868;51.326;6.550;2023-08-30T05:10:13;15.90;99.90
61916;DHT22;47868;51.326;6.550;2023-08-30T05:12:38;15.90;99.90
61916;DHT22;47868;51.326;6.550;2023-08-30T05:15:04;16.00;99.90
61916;DHT22;47868;51.326;6.550;2023-08-30T05:17:30;15.90;99.90
61916;DHT22;47868;51.326;6.550;2023-08-30T05:19:56;16.00;99.90
61916;DHT22;47868;51.326;6.550;2023-08-30T05:22:21;16.50;99.90
61916;DHT22;47868;51.326;6.550;2023-08-30T05:24:47;16.60;99.90
61916;DHT22;47868;51.326;6.550;2023-08-30T05:27:13;16.00;99.90
61916;DHT22;47868;51.326;6.550;2023-08-30T05:29:40;16.20;99.90
61916;DHT22;47868;51.326;6.550;2023-08-30T05:32:06;16.50;99.90
61916;DHT22;47868;51.326;6.550;2023-08-30T05:34:31;16.10;99.90
61916;DHT22;47868;51.326;6.550;2023-08-30T05:36:57;16.80;99.90
61916;DHT22;47868;51.326;6.550;2023-08-30T05:39:22;16.20;99.90
61916;DHT22;47868;51.326;6.550;2023-08-30T05:41:48;17.00;99.90
61916;DHT22;47868;51.326;6.550;2023-08-30T05:44:14;16.10;99.90
61916;DHT22;47868;51.326;6.550;2023-08-30T05:46:39;16.30;99.90
61916;DHT22;47868;51.326;6.550;2023-08-30T05:49:05;16.50;99.90
61916;DHT22;47868;51.326;6.550;2023-08-30T05:51:30;16.20;99.90
61916;DHT22;47868;51.326;6.550;2023-08-30T05:53:56;16.10;99.90
61916;DHT22;47868;51.326;6.550;2023-08-30T05:56:22;16.10;99.90
61916;DHT22;47868;51.326;6.550;2023-08-30T05:58:47;16.10;99.90
61916;DHT22;47868;51.326;6.550;2023-08-30T06:01:14;15.90;99.90
61916;DHT22;47868;51.326;6.550;2023-08-30T06:03:39;16.20;99.90
61916;DHT22;47868;51.326;6.550;2023-08-30T06:06:05;16.10;99.90
61916;DHT22;47868;51.326;6.550;2023-08-30T06:10:57;16.00;99.90
61916;DHT22;47868;51.326;6.550;2023-08-30T06:13:22;16.20;99.90
61916;DHT22;47868;51.326;6.550;2023-08-30T06:15:52;16.10;99.90
61916;DHT22;47868;51.326;6.550;2023-08-30T06:18:18;16.30;99.90
61916;DHT22;47868;51.326;6.550;2023-08-30T06:20:44;16.60;99.90
61916;DHT22;47868;51.326;6.550;2023-08-30T06:23:10;16.20;99.90
61916;DHT22;47868;51.326;6.550;2023-08-30T06:25:35;16.30;99.90
61916;DHT22;47868;51.326;6.550;2023-08-30T06:28:01;16.30;99.90
61916;DHT22;47868;51.326;6.550;2023-08-30T06:30:29;16.40;99.90
61916;DHT22;47868;51.326;6.550;2023-08-30T06:32:57;16.40;99.90
61916;DHT22;47868;51.326;6.550;2023-08-30T06:35:24;16.50;99.90
61916;DHT22;47868;51.326;6.550;2023-08-30T06:37:49;16.60;99.90
61916;DHT22;47868;51.326;6.550;2023-08-30T06:40:15;16.80;99.90
61916;DHT22;47868;51.326;6.550;2023-08-30T06:42:41;16.60;99.90
61916;DHT22;47868;51.326;6.550;2023-08-30T06:45:07;16.60;99.90
61916;DHT22;47868;51.326;6.550;2023-08-30T06:47:32;16.60;99.90
61916;DHT22;47868;51.326;6.550;2023-08-30T06:50:00;17.00;99.90
61916;DHT22;47868;51.326;6.550;2023-08-30T06:52:25;16.70;99.90
61916;DHT22;47868;51.326;6.550;2023-08-30T06:54:51;16.70;99.90
61916;DHT22;47868;51.326;6.550;2023-08-30T06:57:16;16.80;99.90
61916;DHT22;47868;51.326;6.550;2023-08-30T06:59:42;17.00;99.90
61916;DHT22;47868;51.326;6.550;2023-08-30T07:02:08;16.90;99.90
61916;DHT22;47868;51.326;6.550;2023-08-30T07:04:34;17.20;99.90
61916;DHT22;47868;51.326;6.550;2023-08-30T07:06:59;17.20;99.90
61916;DHT22;47868;51.326;6.550;2023-08-30T07:09:25;17.50;99.90
61916;DHT22;47868;51.326;6.550;2023-08-30T07:11:58;17.50;99.90
61916;DHT22;47868;51.326;6.550;2023-08-30T07:14:23;17.50;99.90
61916;DHT22;47868;51.326;6.550;2023-08-30T07:16:49;17.70;99.90
61916;DHT22;47868;51.326;6.550;2023-08-30T07:19:16;17.70;99.90
61916;DHT22;47868;51.326;6.550;2023-08-30T07:21:44;18.20;99.90
61916;DHT22;47868;51.326;6.550;2023-08-30T07:24:09;18.20;99.90
61916;DHT22;47868;51.326;6.550;2023-08-30T07:26:36;18.30;99.90
61916;DHT22;47868;51.326;6.550;2023-08-30T07:29:02;18.40;99.90
61916;DHT22;47868;51.326;6.550;2023-08-30T07:31:30;18.50;99.90
61916;DHT22;47868;51.326;6.550;2023-08-30T07:33:56;18.60;99.90
61916;DHT22;47868;51.326;6.550;2023-08-30T07:36:23;18.60;99.90
61916;DHT22;47868;51.326;6.550;2023-08-30T07:38:49;18.40;99.90
61916;DHT22;47868;51.326;6.550;2023-08-30T07:41:14;18.50;99.90
61916;DHT22;47868;51.326;6.550;2023-08-30T07:43:40;18.50;99.90
61916;DHT22;47868;51.326;6.550;2023-08-30T07:46:05;18.50;99.90
61916;DHT22;47868;51.326;6.550;2023-08-30T07:48:31;18.60;99.90
61916;DHT22;47868;51.326;6.550;2023-08-30T07:50:56;18.60;99.90
61916;DHT22;47868;51.326;6.550;2023-08-30T07:53:22;18.80;99.90
61916;DHT22;47868;51.326;6.550;2023-08-30T07:55:48;18.80;99.90
61916;DHT22;47868;51.326;6.550;2023-08-30T07:58:15;18.70;99.90
61916;DHT22;47868;51.326;6.550;2023-08-30T08:00:41;18.80;99.90
61916;DHT22;47868;51.326;6.550;2023-08-30T08:03:06;19.00;99.90
61916;DHT22;47868;51.326;6.550;2023-08-30T08:05:32;19.10;99.90
61916;DHT22;47868;51.326;6.550;2023-08-30T08:08:00;19.20;99.90
61916;DHT22;47868;51.326;6.550;2023-08-30T08:10:33;19.30;99.90
61916;DHT22;47868;51.326;6.550;2023-08-30T08:13:01;19.40;99.90
61916;DHT22;47868;51.326;6.550;2023-08-30T08:15:29;19.50;99.90
61916;DHT22;47868;51.326;6.550;2023-08-30T08:18:02;19.50;99.90
61916;DHT22;47868;51.326;6.550;2023-08-30T08:20:29;19.50;99.90
61916;DHT22;47868;51.326;6.550;2023-08-30T08:22:55;19.40;99.90
61916;DHT22;47868;51.326;6.550;2023-08-30T08:25:20;19.30;99.90
61916;DHT22;47868;51.326;6.550;2023-08-30T08:27:47;19.50;99.90
61916;DHT22;47868;51.326;6.550;2023-08-30T08:30:13;19.20;99.90
61916;DHT22;47868;51.326;6.550;2023-08-30T08:32:39;18.90;99.90
61916;DHT22;47868;51.326;6.550;2023-08-30T08:35:05;18.80;99.90
61916;DHT22;47868;51.326;6.550;2023-08-30T08:37:31;18.70;99.90
61916;DHT22;47868;51.326;6.550;2023-08-30T08:39:57;18.70;99.90
61916;DHT22;47868;51.326;6.550;2023-08-30T08:42:23;18.80;99.90
61916;DHT22;47868;51.326;6.550;2023-08-30T08:44:53;18.60;99.90
61916;DHT22;47868;51.326;6.550;2023-08-30T08:47:20;18.50;99.90
61916;DHT22;47868;51.326;6.550;2023-08-30T08:49:47;18.50;99.90
61916;DHT22;47868;51.326;6.550;2023-08-30T08:52:16;18.30;99.90
61916;DHT22;47868;51.326;6.550;2023-08-30T08:54:43;18.30;99.90
61916;DHT22;47868;51.326;6.550;2023-08-30T08:57:09;18.30;99.90
61916;DHT22;47868;51.326;6.550;2023-08-30T08:59:35;18.30;99.90
61916;DHT22;47868;51.326;6.550;2023-08-30T09:02:01;18.70;99.90
61916;DHT22;47868;51.326;6.550;2023-08-30T09:04:30;18.20;99.90
61916;DHT22;47868;51.326;6.550;2023-08-30T09:09:22;17.90;99.90
61916;DHT22;47868;51.326;6.550;2023-08-30T09:11:48;18.10;99.90
61916;DHT22;47868;51.326;6.550;2023-08-30T09:14:14;17.70;99.90
61916;DHT22;47868;51.326;6.550;2023-08-30T09:16:39;17.70;99.90
61916;DHT22;47868;51.326;6.550;2023-08-30T09:19:05;17.50;99.90
61916;DHT22;47868;51.326;6.550;2023-08-30T09:21:32;17.60;99.90
61916;DHT22;47868;51.326;6.550;2023-08-30T09:23:59;17.80;99.90
61916;DHT22;47868;51.326;6.550;2023-08-30T09:26:26;17.50;99.90
61916;DHT22;47868;51.326;6.550;2023-08-30T09:28:54;17.80;99.90
61916;DHT22;47868;51.326;6.550;2023-08-30T09:31:19;17.60;99.90
61916;DHT22;47868;51.326;6.550;2023-08-30T09:33:46;17.90;99.90
61916;DHT22;47868;51.326;6.550;2023-08-30T09:38:41;17.70;99.90
61916;DHT22;47868;51.326;6.550;2023-08-30T09:41:13;18.10;99.90
61916;DHT22;47868;51.326;6.550;2023-08-30T09:43:42;18.00;99.90
61916;DHT22;47868;51.326;6.550;2023-08-30T09:48:37;17.90;99.90
61916;DHT22;47868;51.326;6.550;2023-08-30T09:51:05;17.90;99.90
61916;DHT22;47868;51.326;6.550;2023-08-30T09:53:40;17.90;99.90
61916;DHT22;47868;51.326;6.550;2023-08-30T09:56:08;17.80;99.90
61916;DHT22;47868;51.326;6.550;2023-08-30T09:58:35;17.70;99.90
61916;DHT22;47868;51.326;6.550;2023-08-30T10:01:02;18.10;99.90
61916;DHT22;47868;51.326;6.550;2023-08-30T10:03:30;18.00;99.90
61916;DHT22;47868;51.326;6.550;2023-08-30T10:05:56;17.90;99.90
61916;DHT22;47868;51.326;6.550;2023-08-30T10:08:23;17.90;99.90
61916;DHT22;47868;51.326;6.550;2023-08-30T10:10:55;17.90;99.90
61916;DHT22;47868;51.326;6.550;2023-08-30T10:13:23;17.80;99.90
61916;DHT22;47868;51.326;6.550;2023-08-30T10:15:52;16.30;99.90
61916;DHT22;47868;51.326;6.550;2023-08-30T10:18:22;17.60;99.90
61916;DHT22;47868;51.326;6.550;2023-08-30T10:20:54;17.80;99.90
61916;DHT22;47868;51.326;6.550;2023-08-30T10:23:21;16.20;99.90
61916;DHT22;47868;51.326;6.550;2023-08-30T10:25:49;17.20;99.90
61916;DHT22;47868;51.326;6.550;2023-08-30T10:28:17;17.40;99.90
61916;DHT22;47868;51.326;6.550;2023-08-30T10:30:44;17.20;99.90
61916;DHT22;47868;51.326;6.550;2023-08-30T10:33:13;17.10;99.90
61916;DHT22;47868;51.326;6.550;2023-08-30T10:35:49;17.20;99.90
61916;DHT22;47868;51.326;6.550;2023-08-30T10:38:27;17.20;99.90
61916;DHT22;47868;51.326;6.550;2023-08-30T10:40:53;17.00;99.90
61916;DHT22;47868;51.326;6.550;2023-08-30T10:43:28;17.30;99.90
61916;DHT22;47868;51.326;6.550;2023-08-30T10:46:05;17.20;99.90
61916;DHT22;47868;51.326;6.550;2023-08-30T10:48:40;16.80;99.90
61916;DHT22;47868;51.326;6.550;2023-08-30T10:51:37;17.40;99.90
61916;DHT22;47868;51.326;6.550;2023-08-30T10:54:14;16.60;99.90
61916;DHT22;47868;51.326;6.550;2023-08-30T10:56:57;16.50;99.90
61916;DHT22;47868;51.326;6.550;2023-08-30T10:59:25;16.60;99.90
61916;DHT22;47868;51.326;6.550;2023-08-30T11:01:51;16.90;99.90
61916;DHT22;47868;51.326;6.550;2023-08-30T11:04:18;16.70;99.90
61916;DHT22;47868;51.326;6.550;2023-08-30T11:06:48;16.90;99.90
61916;DHT22;47868;51.326;6.550;2023-08-30T11:09:16;16.70;99.90
61916;DHT22;47868;51.326;6.550;2023-08-30T11:11:43;16.80;99.90
61916;DHT22;47868;51.326;6.550;2023-08-30T11:14:09;17.10;99.90
61916;DHT22;47868;51.326;6.550;2023-08-30T11:16:36;17.10;99.90
61916;DHT22;47868;51.326;6.550;2023-08-30T11:19:06;16.80;99.90
61916;DHT22;47868;51.326;6.550;2023-08-30T11:21:36;17.20;99.90
61916;DHT22;47868;51.326;6.550;2023-08-30T11:24:03;16.90;99.90
61916;DHT22;47868;51.326;6.550;2023-08-30T11:26:29;17.00;99.90
61916;DHT22;47868;51.326;6.550;2023-08-30T11:28:55;17.10;99.90
61916;DHT22;47868;51.326;6.550;2023-08-30T11:31:25;16.90;99.90
61916;DHT22;47868;51.326;6.550;2023-08-30T11:33:55;17.00;99.90
61916;DHT22;47868;51.326;6.550;2023-08-30T11:36:22;17.30;99.90
61916;DHT22;47868;51.326;6.550;2023-08-30T11:38:49;17.30;99.90
61916;DHT22;47868;51.326;6.550;2023-08-30T11:41:16;17.40;99.90
61916;DHT22;47868;51.326;6.550;2023-08-30T11:43:42;17.60;99.90
61916;DHT22;47868;51.326;6.550;2023-08-30T11:48:35;17.20;99.90
61916;DHT22;47868;51.326;6.550;2023-08-30T11:51:02;17.40;99.90
61916;DHT22;47868;51.326;6.550;2023-08-30T11:53:28;17.40;99.90
61916;DHT22;47868;51.326;6.550;2023-08-30T11:55:54;17.40;99.90
61916;DHT22;47868;51.326;6.550;2023-08-30T11:58:20;17.60;99.90
61916;DHT22;47868;51.326;6.550;2023-08-30T12:00:48;17.70;99.90
61916;DHT22;47868;51.326;6.550;2023-08-30T12:03:14;17.60;99.90
61916;DHT22;47868;51.326;6.550;2023-08-30T12:05:48;17.20;99.90
61916;DHT22;47868;51.326;6.550;2023-08-30T12:08:25;17.20;99.90
61916;DHT22;47868;51.326;6.550;2023-08-30T12:15:53;16.90;99.90
61916;DHT22;47868;51.326;6.550;2023-08-30T12:18:37;17.10;99.90
61916;DHT22;47868;51.326;6.550;2023-08-30T12:21:04;17.00;99.90
61916;DHT22;47868;51.326;6.550;2023-08-30T12:23:30;17.20;99.90
61916;DHT22;47868;51.326;6.550;2023-08-30T12:26:07;16.90;99.90
61916;DHT22;47868;51.326;6.550;2023-08-30T12:28:40;16.80;99.90
61916;DHT22;47868;51.326;6.550;2023-08-30T12:31:07;16.80;99.90
61916;DHT22;47868;51.326;6.550;2023-08-30T12:33:36;17.00;99.90
61916;DHT22;47868;51.326;6.550;2023-08-30T12:36:03;16.80;99.90
61916;DHT22;47868;51.326;6.550;2023-08-30T12:38:29;16.90;99.90
61916;DHT22;47868;51.326;6.550;2023-08-30T12:40:56;16.90;99.90
61916;DHT22;47868;51.326;6.550;2023-08-30T12:43:22;17.00;99.90
61916;DHT22;47868;51.326;6.550;2023-08-30T12:45:49;16.90;99.90
61916;DHT22;47868;51.326;6.550;2023-08-30T12:48:16;17.10;99.90
61916;DHT22;47868;51.326;6.550;2023-08-30T12:50:44;16.90;99.90
61916;DHT22;47868;51.326;6.550;2023-08-30T12:53:10;17.00;99.90
61916;DHT22;47868;51.326;6.550;2023-08-30T12:55:35;17.20;99.90
61916;DHT22;47868;51.326;6.550;2023-08-30T13:00:37;17.10;99.90
61916;DHT22;47868;51.326;6.550;2023-08-30T13:03:02;17.30;99.90
61916;DHT22;47868;51.326;6.550;2023-08-30T13:05:28;17.30;99.90
61916;DHT22;47868;51.326;6.550;2023-08-30T13:07:56;17.40;99.90
61916;DHT22;47868;51.326;6.550;2023-08-30T13:10:21;18.70;99.90
61916;DHT22;47868;51.326;6.550;2023-08-30T13:12:47;17.50;99.90
61916;DHT22;47868;51.326;6.550;2023-08-30T13:15:13;17.70;99.90
61916;DHT22;47868;51.326;6.550;2023-08-30T13:17:38;18.10;99.90
61916;DHT22;47868;51.326;6.550;2023-08-30T13:20:04;17.80;99.90
61916;DHT22;47868;51.326;6.550;2023-08-30T13:22:30;17.50;99.90
61916;DHT22;47868;51.326;6.550;2023-08-30T13:24:56;17.40;99.90
61916;DHT22;47868;51.326;6.550;2023-08-30T13:29:55;17.50;99.90
61916;DHT22;47868;51.326;6.550;2023-08-30T13:32:20;17.60;99.90
61916;DHT22;47868;51.326;6.550;2023-08-30T13:34:46;17.70;99.90
61916;DHT22;47868;51.326;6.550;2023-08-30T13:37:12;17.70;99.90
61916;DHT22;47868;51.326;6.550;2023-08-30T13:39:41;17.80;99.90
61916;DHT22;47868;51.326;6.550;2023-08-30T13:42:07;17.70;99.90
61916;DHT22;47868;51.326;6.550;2023-08-30T13:44:33;17.70;99.90
61916;DHT22;47868;51.326;6.550;2023-08-30T13:47:05;17.60;99.90
61916;DHT22;47868;51.326;6.550;2023-08-30T13:49:31;17.50;99.90
61916;DHT22;47868;51.326;6.550;2023-08-30T13:51:57;17.70;99.90
61916;DHT22;47868;51.326;6.550;2023-08-30T13:54:23;17.50;99.90
61916;DHT22;47868;51.326;6.550;2023-08-30T13:56:48;17.50;99.90
61916;DHT22;47868;51.326;6.550;2023-08-30T13:59:15;17.50;99.90
61916;DHT22;47868;51.326;6.550;2023-08-30T14:01:41;17.40;99.90
61916;DHT22;47868;51.326;6.550;2023-08-30T14:04:07;17.40;99.90
61916;DHT22;47868;51.326;6.550;2023-08-30T14:06:32;17.40;99.90
61916;DHT22;47868;51.326;6.550;2023-08-30T14:08:58;17.30;99.90
61916;DHT22;47868;51.326;6.550;2023-08-30T14:11:24;17.40;99.90
61916;DHT22;47868;51.326;6.550;2023-08-30T14:13:49;17.30;99.90
61916;DHT22;47868;51.326;6.550;2023-08-30T14:16:15;17.30;99.90
61916;DHT22;47868;51.326;6.550;2023-08-30T14:18:41;17.20;99.90
61916;DHT22;47868;51.326;6.550;2023-08-30T14:21:07;17.20;99.90
61916;DHT22;47868;51.326;6.550;2023-08-30T14:23:33;17.10;99.90
61916;DHT22;47868;51.326;6.550;2023-08-30T14:26:03;17.10;99.90
61916;DHT22;47868;51.326;6.550;2023-08-30T14:28:34;17.00;99.90
61916;DHT22;47868;51.326;6.550;2023-08-30T14:31:00;17.00;99.90
61916;DHT22;47868;51.326;6.550;2023-08-30T14:33:25;16.90;99.90
61916;DHT22;47868;51.326;6.550;2023-08-30T14:35:51;16.90;99.90
61916;DHT22;47868;51.326;6.550;2023-08-30T14:38:17;16.80;99.90
61916;DHT22;47868;51.326;6.550;2023-08-30T14:40:42;16.80;99.90
61916;DHT22;47868;51.326;6.550;2023-08-30T14:43:08;16.70;99.90
61916;DHT22;47868;51.326;6.550;2023-08-30T14:45:34;16.70;99.90
61916;DHT22;47868;51.326;6.550;2023-08-30T14:47:59;16.70;99.90
61916;DHT22;47868;51.326;6.550;2023-08-30T14:50:25;16.80;99.90
61916;DHT22;47868;51.326;6.550;2023-08-30T14:52:50;16.80;99.90
61916;DHT22;47868;51.326;6.550;2023-08-30T14:55:17;16.90;99.90
61916;DHT22;47868;51.326;6.550;2023-08-30T14:57:43;17.00;99.90
61916;DHT22;47868;51.326;6.550;2023-08-30T15:00:09;17.00;99.90
61916;DHT22;47868;51.326;6.550;2023-08-30T15:02:34;17.10;99.90
61916;DHT22;47868;51.326;6.550;2023-08-30T15:05:00;17.20;99.90
61916;DHT22;47868;51.326;6.550;2023-08-30T15:07:26;17.40;99.90
61916;DHT22;47868;51.326;6.550;2023-08-30T15:09:51;18.00;99.90
61916;DHT22;47868;51.326;6.550;2023-08-30T15:12:17;18.50;99.90
61916;DHT22;47868;51.326;6.550;2023-08-30T15:14:43;24.60;99.90
61916;DHT22;47868;51.326;6.550;2023-08-30T15:17:09;33.00;96.00
61916;DHT22;47868;51.326;6.550;2023-08-30T15:19:35;32.80;96.40
